Time;durP1;ratioP1;P1;durP2;ratioP2;P2;SDS_P1;SDS_P2;PMS_P1;PMS_P2;Temp;Humidity;BMP_temperature;BMP_pressure;BME280_temperature;BME280_humidity;BME280_pressure;Samples;Min_cycle;Max_cycle;Signal;HPM_P1;HPM_P2
2023/01/30 00:01:42;;;;;;;11.77;7.93;;;5.00;99.90;;;;;;5072272;28;20471;-35
2023/01/30 00:04:08;;;;;;;11.27;7.72;;;5.00;99.90;;;;;;5072094;28;20115;-39
2023/01/30 00:06:34;;;;;;;12.38;7.63;;;5.20;99.90;;;;;;5072104;28;20392;-42
2023/01/30 00:09:00;;;;;;;10.70;7.53;;;5.40;99.90;;;;;;5072067;28;20048;-34
2023/01/30 00:11:27;;;;;;;12.13;7.95;;;5.60;99.90;;;;;;5072074;28;20029;-40
2023/01/30 00:13:53;;;;;;;13.10;8.75;;;5.80;99.90;;;;;;5072456;28;20024;-37
2023/01/30 00:16:18;;;;;;;13.48;8.52;;;5.90;99.90;;;;;;5071678;28;20081;-35
2023/01/30 00:18:44;;;;;;;12.77;7.95;;;5.90;99.90;;;;;;5071882;28;20028;-42
2023/01/30 00:21:12;;;;;;;11.88;8.10;;;5.90;99.90;;;;;;5071944;28;20024;-41
2023/01/30 00:23:38;;;;;;;16.00;8.38;;;5.80;99.90;;;;;;5071856;28;20421;-40
2023/01/30 00:26:06;;;;;;;10.90;7.85;;;5.70;99.90;;;;;;5072251;28;20040;-34
2023/01/30 00:28:31;;;;;;;13.23;7.90;;;5.70;99.90;;;;;;5072243;28;20039;-34
2023/01/30 00:30:57;;;;;;;11.88;8.10;;;5.60;99.90;;;;;;5071675;28;20021;-32
2023/01/30 00:33:24;;;;;;;11.05;7.57;;;5.50;99.90;;;;;;5073439;28;20036;-32
2023/01/30 00:35:52;;;;;;;12.43;8.15;;;5.40;99.90;;;;;;5070592;28;20032;-41
2023/01/30 00:38:18;;;;;;;12.77;8.07;;;5.30;99.90;;;;;;5071885;28;20037;-32
2023/01/30 00:40:43;;;;;;;11.60;7.80;;;5.20;99.90;;;;;;5071524;28;20041;-38
2023/01/30 00:48:41;;;;;;;11.80;7.78;;;5.10;99.90;;;;;;5071693;28;20470;-34
2023/01/30 00:51:06;;;;;;;13.23;7.95;;;5.10;99.90;;;;;;5071549;28;20100;-33
2023/01/30 00:53:32;;;;;;;10.93;7.82;;;5.10;99.90;;;;;;5071415;28;20035;-40
2023/01/30 00:55:58;;;;;;;10.95;7.60;;;5.00;99.90;;;;;;5071056;28;20024;-43
2023/01/30 00:58:24;;;;;;;11.32;7.65;;;5.00;99.90;;;;;;5071260;28;20051;-40
2023/01/30 01:00:50;;;;;;;11.43;7.72;;;5.00;99.90;;;;;;5071255;28;20017;-31
2023/01/30 01:03:16;;;;;;;11.25;7.65;;;5.00;99.90;;;;;;5071396;28;20406;-34
2023/01/30 01:05:42;;;;;;;14.68;8.75;;;5.10;99.90;;;;;;5071574;28;20020;-32
2023/01/30 01:08:08;;;;;;;12.48;8.38;;;5.30;99.90;;;;;;5071092;28;20039;-41
2023/01/30 01:10:34;;;;;;;10.55;7.43;;;5.50;99.90;;;;;;5071577;28;20070;-35
2023/01/30 01:12:59;;;;;;;11.88;7.80;;;5.70;99.90;;;;;;5071169;28;20123;-41
2023/01/30 01:15:26;;;;;;;12.60;7.70;;;5.90;99.90;;;;;;5071059;28;20029;-33
2023/01/30 01:17:52;;;;;;;12.93;8.20;;;5.90;99.90;;;;;;5071024;28;20376;-35
2023/01/30 01:20:18;;;;;;;11.27;7.65;;;5.80;99.90;;;;;;5071408;28;20028;-31
2023/01/30 01:22:48;;;;;;;11.57;7.68;;;5.80;99.90;;;;;;5072504;28;20017;-32
2023/01/30 01:25:14;;;;;;;11.90;7.47;;;5.70;99.90;;;;;;5071016;28;20021;-36
2023/01/30 01:27:39;;;;;;;11.90;7.88;;;5.60;99.90;;;;;;5071227;28;20104;-40
2023/01/30 01:30:06;;;;;;;12.88;7.95;;;5.50;99.90;;;;;;5071001;28;20028;-39
2023/01/30 01:32:31;;;;;;;11.77;7.82;;;5.50;99.90;;;;;;5071127;28;20028;-31
2023/01/30 01:34:57;;;;;;;13.00;8.20;;;5.40;99.90;;;;;;5071269;28;20029;-31
2023/01/30 01:37:22;;;;;;;11.57;7.65;;;5.30;99.90;;;;;;5070863;28;20085;-32
2023/01/30 01:42:35;;;;;;;11.02;7.10;;;5.20;99.90;;;;;;5070958;28;20086;-33
2023/01/30 01:45:15;;;;;;;10.75;6.97;;;5.10;99.90;;;;;;5071113;28;20101;-42
2023/01/30 01:47:53;;;;;;;11.32;7.32;;;5.10;99.90;;;;;;5074419;28;20025;-34
2023/01/30 01:50:27;;;;;;;11.15;7.47;;;5.00;99.90;;;;;;5074627;28;20025;-35
2023/01/30 01:52:54;;;;;;;;;;;5.00;99.90;;;;;;5075259;28;20025;-38
2023/01/30 01:55:22;;;;;;;13.13;8.20;;;5.00;99.90;;;;;;5075087;28;19946;-38
2023/01/30 01:57:53;;;;;;;12.10;7.80;;;4.90;99.90;;;;;;5075364;28;20636;-41
2023/01/30 02:00:20;;;;;;;11.05;7.07;;;4.90;99.90;;;;;;5074570;28;20466;-33
2023/01/30 02:02:56;;;;;;;10.40;7.65;;;4.90;99.90;;;;;;5074458;28;20507;-34
2023/01/30 02:05:23;;;;;;;11.65;7.75;;;5.00;99.90;;;;;;5074452;28;20020;-38
2023/01/30 02:08:03;;;;;;;11.52;7.70;;;5.20;99.90;;;;;;5074278;28;20021;-36
2023/01/30 02:10:47;;;;;;;11.82;8.00;;;5.40;99.90;;;;;;5074346;28;20025;-37
2023/01/30 02:13:13;;;;;;;;;;;5.60;99.90;;;;;;5074772;28;20032;-39
2023/01/30 02:15:39;;;;;;;10.88;7.18;;;5.80;99.90;;;;;;5074827;28;19915;-40
2023/01/30 02:18:05;;;;;;;12.95;7.68;;;5.90;99.90;;;;;;5074146;28;20024;-35
2023/01/30 02:20:43;;;;;;;10.93;7.80;;;5.90;99.90;;;;;;5074236;28;20029;-32
2023/01/30 02:23:36;;;;;;;10.32;7.05;;;5.80;99.90;;;;;;5075154;28;20380;-33
2023/01/30 02:26:11;;;;;;;11.73;7.50;;;5.70;99.90;;;;;;5074013;28;20552;-34
2023/01/30 02:29:14;;;;;;;11.77;7.38;;;5.60;99.90;;;;;;5074365;28;20414;-31
2023/01/30 02:31:49;;;;;;;11.55;7.68;;;5.50;99.90;;;;;;5074088;28;20099;-37
2023/01/30 02:34:33;;;;;;;10.35;7.65;;;5.40;99.90;;;;;;5073869;28;20415;-31
2023/01/30 02:37:19;;;;;;;10.45;7.30;;;5.30;99.90;;;;;;5073851;28;20501;-41
2023/01/30 02:39:54;;;;;;;10.77;7.20;;;5.20;99.90;;;;;;5073866;28;20020;-32
2023/01/30 02:42:38;;;;;;;11.20;7.32;;;5.20;99.90;;;;;;5073735;28;20028;-33
2023/01/30 02:45:19;;;;;;;;;;;5.10;99.90;;;;;;5074476;28;20035;-42
2023/01/30 02:47:56;;;;;;;10.40;7.53;;;5.10;99.90;;;;;;5073788;28;19911;-33
2023/01/30 02:50:27;;;;;;;12.05;7.65;;;5.00;99.90;;;;;;5073614;28;20029;-34
2023/01/30 02:52:54;;;;;;;9.98;7.43;;;5.00;99.90;;;;;;5073532;28;20032;-42
2023/01/30 02:55:23;;;;;;;10.30;7.20;;;4.90;99.90;;;;;;5074041;28;20379;-35
2023/01/30 02:57:49;;;;;;;12.60;8.50;;;4.90;99.90;;;;;;5072425;28;20095;-37
2023/01/30 03:00:22;;;;;;;11.00;7.35;;;4.90;99.90;;;;;;5073462;28;20021;-42
2023/01/30 03:03:28;;;;;;;11.35;6.93;;;4.80;99.90;;;;;;5073446;28;20032;-32
2023/01/30 03:06:16;;;;;;;9.80;6.75;;;4.90;99.90;;;;;;5070585;28;20036;-32
2023/01/30 03:09:01;;;;;;;11.30;7.50;;;5.10;99.90;;;;;;5073200;28;20120;-34
2023/01/30 03:11:43;;;;;;;10.52;7.28;;;5.40;99.90;;;;;;5073212;28;20048;-34
2023/01/30 03:14:25;;;;;;;10.00;6.95;;;5.60;99.90;;;;;;5073444;28;20024;-37
2023/01/30 03:16:53;;;;;;;11.10;7.20;;;5.80;99.90;;;;;;5073895;28;20040;-32
2023/01/30 03:19:20;;;;;;;11.35;7.25;;;5.80;99.90;;;;;;5073174;28;20043;-36
2023/01/30 03:21:46;;;;;;;10.98;7.07;;;5.80;99.90;;;;;;5073150;28;20027;-33
2023/01/30 03:24:12;;;;;;;13.45;7.38;;;5.70;99.90;;;;;;5074200;28;20078;-31
2023/01/30 03:26:44;;;;;;;12.90;7.70;;;5.60;99.90;;;;;;5072866;28;20039;-41
2023/01/30 03:29:10;;;;;;;10.50;7.05;;;5.60;99.90;;;;;;5072930;28;20486;-38
2023/01/30 03:31:35;;;;;;;10.48;7.28;;;5.50;99.90;;;;;;5072891;28;20025;-34
2023/01/30 03:34:01;;;;;;;11.00;7.30;;;5.40;99.90;;;;;;5072907;28;20069;-41
2023/01/30 03:36:26;;;;;;;9.98;7.50;;;5.30;99.90;;;;;;5072445;28;20029;-42
2023/01/30 03:38:52;;;;;;;10.38;6.88;;;5.20;99.90;;;;;;5072692;28;20035;-38
2023/01/30 03:41:18;;;;;;;9.70;6.85;;;5.20;99.90;;;;;;5072745;28;20059;-32
2023/01/30 03:43:43;;;;;;;10.13;6.93;;;5.10;99.90;;;;;;5072701;28;20032;-33
2023/01/30 03:46:09;;;;;;;11.77;7.45;;;5.10;99.90;;;;;;5072588;28;20028;-32
2023/01/30 03:48:35;;;;;;;9.88;6.75;;;5.00;99.90;;;;;;5072512;28;20063;-37
2023/01/30 03:51:00;;;;;;;9.45;6.70;;;4.90;99.90;;;;;;5072447;28;20505;-33
2023/01/30 03:53:26;;;;;;;9.90;6.70;;;4.90;99.90;;;;;;5072450;28;20109;-42
2023/01/30 03:55:51;;;;;;;9.65;6.82;;;4.90;99.90;;;;;;5072121;28;20137;-33
2023/01/30 03:58:17;;;;;;;8.75;6.38;;;4.90;99.90;;;;;;5072175;28;20039;-37
2023/01/30 04:00:43;;;;;;;12.60;7.45;;;4.90;99.90;;;;;;5072203;28;20024;-33
2023/01/30 04:03:08;;;;;;;9.98;6.75;;;4.90;99.90;;;;;;5072317;28;20016;-33
2023/01/30 04:05:34;;;;;;;9.77;6.53;;;5.00;99.90;;;;;;5072050;28;20028;-33
2023/01/30 04:07:59;;;;;;;10.00;7.07;;;5.10;99.90;;;;;;5072750;28;20033;-34
2023/01/30 04:10:25;;;;;;;10.32;6.60;;;5.30;99.90;;;;;;5073046;28;20024;-32
2023/01/30 04:12:51;;;;;;;9.85;6.55;;;5.60;99.90;;;;;;5073053;28;20119;-38
2023/01/30 04:15:18;;;;;;;10.45;6.88;;;5.80;99.90;;;;;;5072834;28;20032;-37
2023/01/30 04:17:46;;;;;;;8.40;6.15;;;5.90;99.90;;;;;;5071477;28;20033;-33
2023/01/30 04:20:12;;;;;;;10.15;6.72;;;5.90;99.90;;;;;;5071768;28;20033;-36
2023/01/30 04:22:37;;;;;;;9.13;6.55;;;5.80;99.90;;;;;;5072386;28;20027;-33
2023/01/30 04:25:03;;;;;;;8.85;6.05;;;5.70;99.90;;;;;;5072727;28;20074;-31
2023/01/30 04:27:29;;;;;;;9.13;6.45;;;5.70;99.90;;;;;;5071661;28;20050;-42
2023/01/30 04:29:54;;;;;;;10.25;6.47;;;5.50;99.90;;;;;;5071800;28;20024;-32
2023/01/30 04:32:20;;;;;;;9.95;6.32;;;5.50;99.90;;;;;;5071763;28;20056;-36
2023/01/30 04:34:46;;;;;;;10.18;6.57;;;5.40;99.90;;;;;;5071626;28;20115;-34
2023/01/30 04:37:12;;;;;;;8.80;6.60;;;5.30;99.90;;;;;;5071443;28;20081;-42
2023/01/30 04:39:37;;;;;;;11.45;6.65;;;5.30;99.90;;;;;;5072124;28;20029;-41
2023/01/30 04:42:03;;;;;;;9.85;6.60;;;5.20;99.90;;;;;;5071841;28;20539;-32
2023/01/30 04:44:29;;;;;;;8.80;6.38;;;5.10;99.90;;;;;;5071536;28;20379;-36
2023/01/30 04:46:54;;;;;;;10.13;6.78;;;5.10;99.90;;;;;;5071686;28;20020;-42
2023/01/30 04:49:20;;;;;;;9.25;6.65;;;5.00;99.90;;;;;;5071356;28;20020;-40
2023/01/30 04:51:46;;;;;;;10.07;6.97;;;5.00;99.90;;;;;;5071395;28;20127;-31
2023/01/30 04:54:11;;;;;;;9.63;6.43;;;5.00;99.90;;;;;;5071500;28;20056;-39
2023/01/30 04:56:37;;;;;;;8.70;6.03;;;4.90;99.90;;;;;;5071696;28;19916;-36
2023/01/30 04:59:03;;;;;;;8.32;5.88;;;4.90;99.90;;;;;;5071286;28;20040;-33
2023/01/30 05:01:34;;;;;;;9.63;6.55;;;4.90;99.90;;;;;;5071636;28;20025;-40
2023/01/30 05:04:00;;;;;;;8.90;6.43;;;4.90;99.90;;;;;;5071227;28;20138;-42
2023/01/30 05:06:26;;;;;;;12.00;6.38;;;5.00;99.90;;;;;;5072213;28;20089;-36
2023/01/30 05:08:54;;;;;;;9.00;6.07;;;5.20;99.90;;;;;;5072254;28;20036;-35
2023/01/30 05:11:20;;;;;;;10.75;6.43;;;5.40;99.90;;;;;;5072875;28;20032;-35
2023/01/30 05:13:46;;;;;;;7.97;5.85;;;5.60;99.90;;;;;;5073612;28;20033;-34
2023/01/30 05:16:14;;;;;;;10.70;6.78;;;5.90;99.90;;;;;;5070896;28;20021;-34
2023/01/30 05:18:39;;;;;;;9.68;6.10;;;5.90;99.90;;;;;;5070952;28;20107;-41
2023/01/30 05:21:07;;;;;;;10.13;6.13;;;5.80;99.90;;;;;;5073773;28;20107;-40
2023/01/30 05:23:33;;;;;;;9.30;6.63;;;5.80;99.90;;;;;;5078058;28;20020;-34
2023/01/30 05:25:58;;;;;;;9.13;6.40;;;5.70;99.90;;;;;;5077606;28;20032;-36
2023/01/30 05:28:24;;;;;;;9.65;6.47;;;5.60;99.90;;;;;;5078114;28;20028;-32
2023/01/30 05:30:50;;;;;;;8.43;6.07;;;5.50;99.90;;;;;;5078122;28;20405;-42
2023/01/30 05:33:16;;;;;;;8.60;6.03;;;5.40;99.90;;;;;;5078212;28;20025;-35
2023/01/30 05:35:49;;;;;;;9.27;6.57;;;5.30;99.90;;;;;;5077802;28;20025;-37
2023/01/30 05:38:15;;;;;;;10.38;6.25;;;5.20;99.90;;;;;;5077682;28;20046;-31
2023/01/30 05:40:41;;;;;;;9.75;5.97;;;5.20;99.90;;;;;;5077703;28;20703;-33
2023/01/30 05:43:07;;;;;;;9.70;6.32;;;5.10;99.90;;;;;;5078076;28;20158;-33
2023/01/30 05:45:32;;;;;;;9.68;6.47;;;5.10;99.90;;;;;;5077496;28;20017;-42
2023/01/30 05:47:58;;;;;;;8.43;6.22;;;5.00;99.90;;;;;;5077335;28;20486;-41
2023/01/30 05:50:23;;;;;;;9.27;6.03;;;5.00;99.90;;;;;;5077713;28;20064;-40
2023/01/30 05:52:49;;;;;;;10.10;6.32;;;5.00;99.90;;;;;;5077538;28;20032;-33
2023/01/30 05:55:15;;;;;;;7.78;5.75;;;4.90;99.90;;;;;;5077380;28;20043;-36
2023/01/30 05:57:40;;;;;;;8.30;6.07;;;4.90;99.90;;;;;;5077380;28;20029;-37
2023/01/30 06:00:07;;;;;;;8.20;6.18;;;4.90;99.90;;;;;;5077351;28;20035;-39
2023/01/30 06:02:32;;;;;;;9.25;6.05;;;4.90;99.90;;;;;;5077333;28;20069;-40
2023/01/30 06:04:58;;;;;;;8.60;6.40;;;5.00;99.90;;;;;;5077987;28;20382;-38
2023/01/30 06:07:25;;;;;;;8.93;6.20;;;5.10;99.90;;;;;;5077302;28;20075;-42
2023/01/30 06:09:50;;;;;;;9.65;6.22;;;5.20;99.90;;;;;;5077319;28;20043;-35
2023/01/30 06:12:16;;;;;;;9.40;6.18;;;5.50;99.90;;;;;;5077370;28;20078;-36
2023/01/30 06:14:41;;;;;;;8.13;5.82;;;5.70;99.90;;;;;;5077153;28;20135;-41
2023/01/30 06:17:07;;;;;;;8.65;6.38;;;5.80;99.90;;;;;;5076986;28;20027;-31
2023/01/30 06:19:33;;;;;;;7.43;5.47;;;5.70;99.90;;;;;;5077402;28;20245;-32
2023/01/30 06:21:58;;;;;;;8.98;6.13;;;5.70;99.90;;;;;;5077441;28;20100;-35
2023/01/30 06:24:24;;;;;;;8.73;6.13;;;5.60;99.90;;;;;;5077275;28;20020;-41
2023/01/30 06:26:50;;;;;;;8.50;6.03;;;5.50;99.90;;;;;;5076966;28;20024;-37
2023/01/30 06:29:15;;;;;;;9.13;6.45;;;5.40;99.90;;;;;;5077061;28;20017;-39
2023/01/30 06:31:41;;;;;;;8.23;5.90;;;5.30;99.90;;;;;;5076924;28;20475;-38
2023/01/30 06:34:07;;;;;;;10.40;6.45;;;5.30;99.90;;;;;;5072973;28;20048;-37
2023/01/30 06:36:32;;;;;;;8.90;5.95;;;5.20;99.90;;;;;;5073717;28;20379;-31
2023/01/30 06:38:58;;;;;;;8.63;6.20;;;5.20;99.90;;;;;;5074209;28;20078;-42
2023/01/30 06:41:23;;;;;;;8.80;6.00;;;5.10;99.90;;;;;;5073397;28;20043;-34
2023/01/30 06:43:49;;;;;;;8.00;5.55;;;5.10;99.90;;;;;;5073826;28;20108;-37
2023/01/30 06:46:15;;;;;;;8.80;5.90;;;5.00;99.90;;;;;;5073512;28;20028;-34
2023/01/30 06:48:40;;;;;;;8.45;5.70;;;5.00;99.90;;;;;;5074617;28;20479;-41
2023/01/30 06:51:06;;;;;;;8.75;6.25;;;4.90;99.90;;;;;;5073735;28;20040;-35
2023/01/30 06:53:32;;;;;;;7.38;5.90;;;4.90;99.90;;;;;;5073993;28;20025;-35
2023/01/30 06:55:58;;;;;;;8.13;5.70;;;4.90;99.90;;;;;;5073772;28;20044;-41
2023/01/30 06:58:24;;;;;;;8.30;5.38;;;4.90;99.90;;;;;;5073362;28;20035;-35
2023/01/30 07:00:49;;;;;;;8.07;5.95;;;4.80;99.90;;;;;;5073477;28;20213;-40
2023/01/30 07:03:17;;;;;;;9.15;6.00;;;4.80;99.90;;;;;;5073789;28;20401;-42
2023/01/30 07:05:44;;;;;;;7.75;6.03;;;4.90;99.90;;;;;;5073344;28;20094;-40
2023/01/30 07:08:10;;;;;;;11.82;5.82;;;5.10;99.90;;;;;;5073602;28;20025;-41
2023/01/30 07:10:36;;;;;;;8.48;6.22;;;5.30;99.90;;;;;;5073346;28;20036;-39
2023/01/30 07:13:02;;;;;;;8.48;6.07;;;5.50;99.90;;;;;;5073297;28;20394;-40
2023/01/30 07:15:29;;;;;;;9.15;5.53;;;5.70;99.90;;;;;;5073109;28;20024;-31
2023/01/30 07:17:54;;;;;;;8.45;5.72;;;5.80;99.90;;;;;;5073033;28;20048;-36
2023/01/30 07:20:20;;;;;;;7.95;5.63;;;5.70;99.90;;;;;;5073085;28;20537;-34
2023/01/30 07:22:54;;;;;;;8.23;5.88;;;5.70;99.90;;;;;;5073145;28;20376;-31
2023/01/30 07:25:21;;;;;;;8.60;5.30;;;5.60;99.90;;;;;;5073377;28;20043;-35
2023/01/30 07:27:54;;;;;;;7.78;5.15;;;5.50;99.90;;;;;;5072972;28;20028;-33
2023/01/30 07:30:20;;;;;;;7.88;5.38;;;5.50;99.90;;;;;;5073016;28;20020;-33
2023/01/30 07:32:57;;;;;;;7.82;5.45;;;5.30;99.90;;;;;;5072951;28;20099;-40
2023/01/30 07:35:24;;;;;;;10.20;6.70;;;5.30;99.90;;;;;;5072796;28;20036;-35
2023/01/30 07:37:50;;;;;;;10.13;7.03;;;5.20;99.90;;;;;;5072704;28;20024;-36
2023/01/30 07:40:17;;;;;;;10.93;6.85;;;5.00;99.90;;;;;;5073248;28;20066;-37
2023/01/30 07:42:43;;;;;;;8.82;6.55;;;5.00;99.90;;;;;;5072536;28;20024;-40
2023/01/30 07:45:09;;;;;;;11.02;6.90;;;5.10;99.90;;;;;;5072581;28;20032;-43
2023/01/30 07:47:35;;;;;;;9.50;6.65;;;5.30;99.90;;;;;;5072395;28;20063;-43
2023/01/30 07:50:01;;;;;;;10.95;6.68;;;5.30;99.90;;;;;;5072536;28;20101;-43
2023/01/30 07:52:27;;;;;;;9.63;6.72;;;5.30;99.90;;;;;;5072558;28;20032;-32
2023/01/30 07:54:52;;;;;;;9.98;6.95;;;5.30;99.90;;;;;;5072315;28;20028;-34
2023/01/30 07:57:18;;;;;;;11.23;7.20;;;5.20;99.90;;;;;;5072332;28;20029;-40
2023/01/30 07:59:43;;;;;;;8.48;6.00;;;5.20;99.90;;;;;;5072322;28;20406;-35
2023/01/30 08:02:10;;;;;;;10.00;6.38;;;5.20;99.90;;;;;;5072301;28;20016;-36
2023/01/30 08:04:35;;;;;;;9.63;6.22;;;5.10;99.90;;;;;;5072316;28;20024;-33
2023/01/30 08:07:01;;;;;;;11.20;6.75;;;5.20;99.90;;;;;;5072019;28;20027;-32
2023/01/30 08:09:27;;;;;;;9.02;5.93;;;5.30;99.90;;;;;;5072326;28;20020;-36
2023/01/30 08:11:53;;;;;;;9.60;6.55;;;5.40;99.90;;;;;;5072082;28;20016;-39
2023/01/30 08:14:18;;;;;;;9.40;6.15;;;5.40;99.90;;;;;;5072352;28;20043;-43
2023/01/30 08:16:44;;;;;;;10.32;6.75;;;5.40;99.90;;;;;;5072022;28;20037;-43
2023/01/30 08:19:10;;;;;;;7.70;5.57;;;5.30;99.90;;;;;;5072005;28;20024;-42
2023/01/30 08:21:35;;;;;;;8.93;5.93;;;5.30;99.90;;;;;;5071956;28;20390;-42
2023/01/30 08:24:01;;;;;;;8.50;5.97;;;5.30;99.90;;;;;;5071872;28;20017;-40
2023/01/30 08:26:27;;;;;;;9.55;6.10;;;5.20;99.90;;;;;;5071618;28;20028;-43
2023/01/30 08:28:54;;;;;;;7.90;5.53;;;5.30;99.90;;;;;;5071912;28;20028;-43
2023/01/30 08:31:20;;;;;;;9.63;6.00;;;5.40;99.90;;;;;;5072396;28;20442;-42
2023/01/30 08:33:46;;;;;;;8.07;5.15;;;5.50;99.90;;;;;;5071812;28;20071;-41
2023/01/30 08:36:12;;;;;;;8.85;5.78;;;5.50;99.90;;;;;;5071422;28;20056;-42
2023/01/30 08:38:37;;;;;;;8.00;5.70;;;5.50;99.90;;;;;;5071520;28;20048;-39
2023/01/30 08:41:05;;;;;;;7.63;5.45;;;5.40;99.90;;;;;;5071604;28;20085;-43
2023/01/30 08:43:31;;;;;;;7.63;5.53;;;5.40;99.90;;;;;;5071651;28;20024;-41
2023/01/30 08:45:56;;;;;;;8.40;5.40;;;5.30;99.90;;;;;;5071406;28;20044;-41
2023/01/30 08:48:22;;;;;;;7.75;5.22;;;5.30;99.90;;;;;;5071438;28;20035;-41
2023/01/30 08:50:55;;;;;;;7.75;5.28;;;5.30;99.90;;;;;;5070156;28;20028;-38
2023/01/30 08:53:21;;;;;;;8.15;5.35;;;5.40;99.90;;;;;;5071409;28;20032;-42
2023/01/30 08:55:51;;;;;;;7.38;4.95;;;5.50;99.90;;;;;;5070503;28;20033;-40
2023/01/30 08:58:21;;;;;;;8.48;5.40;;;5.50;99.90;;;;;;5071424;28;20043;-35
2023/01/30 09:00:48;;;;;;;7.40;5.45;;;5.50;99.90;;;;;;5071292;28;20016;-38
2023/01/30 09:03:14;;;;;;;7.22;5.20;;;5.50;99.90;;;;;;5071391;28;20506;-34
2023/01/30 09:05:39;;;;;;;7.47;5.13;;;5.50;99.90;;;;;;5071144;28;20040;-36
2023/01/30 09:08:05;;;;;;;8.95;5.25;;;5.50;99.90;;;;;;5072889;28;20020;-34
2023/01/30 09:10:31;;;;;;;6.70;4.53;;;5.50;99.90;;;;;;5072093;28;20099;-37
2023/01/30 09:12:56;;;;;;;7.70;4.72;;;5.50;99.90;;;;;;5071318;28;20020;-43
2023/01/30 09:15:23;;;;;;;7.15;5.13;;;5.60;99.90;;;;;;5071178;28;20569;-35
2023/01/30 09:17:51;;;;;;;7.35;4.75;;;5.80;99.90;;;;;;5072891;28;20028;-42
2023/01/30 09:20:19;;;;;;;6.82;4.78;;;5.90;99.90;;;;;;5072177;28;20028;-39
2023/01/30 09:22:45;;;;;;;6.30;4.78;;;5.90;99.90;;;;;;5071168;28;20041;-44
2023/01/30 09:25:11;;;;;;;7.05;5.00;;;5.90;99.90;;;;;;5071153;28;20051;-43
2023/01/30 09:27:36;;;;;;;7.75;5.25;;;6.00;99.90;;;;;;5070877;28;20028;-35
2023/01/30 09:30:04;;;;;;;6.97;4.82;;;5.90;99.90;;;;;;5071159;28;20029;-38
2023/01/30 09:32:30;;;;;;;8.05;5.18;;;5.90;99.90;;;;;;5071836;28;20024;-36
2023/01/30 09:34:56;;;;;;;7.57;4.85;;;5.90;99.90;;;;;;5072119;28;20229;-36
2023/01/30 09:37:22;;;;;;;9.13;5.18;;;6.00;99.90;;;;;;5071762;28;20095;-34
2023/01/30 09:39:47;;;;;;;8.10;5.25;;;6.00;99.90;;;;;;5070945;28;20052;-36
2023/01/30 09:42:22;;;;;;;6.47;4.70;;;6.20;99.90;;;;;;5071129;28;20383;-33
2023/01/30 09:45:03;;;;;;;6.97;4.57;;;6.30;99.90;;;;;;5071000;28;20436;-34
2023/01/30 09:47:43;;;;;;;6.47;4.47;;;6.20;99.90;;;;;;5070586;28;20028;-35
2023/01/30 09:50:27;;;;;;;7.15;4.63;;;6.20;99.90;;;;;;5070831;28;20024;-34
2023/01/30 09:53:04;;;;;;;7.60;4.70;;;6.10;99.90;;;;;;5070862;28;20025;-34
2023/01/30 09:55:35;;;;;;;6.13;4.13;;;6.10;99.90;;;;;;5070699;28;20039;-36
2023/01/30 09:58:00;;;;;;;8.45;4.32;;;6.00;99.90;;;;;;5070596;28;20314;-35
2023/01/30 10:00:43;;;;;;;7.10;4.10;;;5.90;99.90;;;;;;5070781;28;20490;-38
2023/01/30 10:03:37;;;;;;;4.68;3.40;;;5.90;99.90;;;;;;5070777;28;20103;-33
2023/01/30 10:06:11;;;;;;;4.90;3.33;;;6.00;99.90;;;;;;5072612;28;20105;-37
2023/01/30 10:08:44;;;;;;;5.50;3.72;;;6.00;99.90;;;;;;5074028;28;20530;-42
2023/01/30 10:11:19;;;;;;;4.65;2.92;;;6.00;99.90;;;;;;5074635;28;20043;-43
2023/01/30 10:14:04;;;;;;;4.88;3.40;;;6.00;99.90;;;;;;5074441;28;20020;-39
2023/01/30 10:16:39;;;;;;;6.45;4.28;;;6.00;99.90;;;;;;5073971;28;20038;-37
2023/01/30 10:19:24;;;;;;;4.85;3.67;;;5.90;99.90;;;;;;5075266;28;20024;-36
2023/01/30 10:22:22;;;;;;;5.15;3.45;;;5.90;99.90;;;;;;5074363;28;20107;-36
2023/01/30 10:25:28;;;;;;;5.10;3.40;;;5.80;99.90;;;;;;5074202;28;20484;-43
2023/01/30 10:28:11;;;;;;;5.95;3.38;;;6.00;99.90;;;;;;5072717;28;20379;-35
2023/01/30 10:30:37;;;;;;;5.82;3.17;;;6.10;99.90;;;;;;5074151;28;20429;-37
2023/01/30 10:33:10;;;;;;;4.07;2.80;;;6.20;99.90;;;;;;5073723;28;20024;-38
2023/01/30 10:35:40;;;;;;;4.65;2.30;;;6.20;99.90;;;;;;5073895;28;20021;-42
2023/01/30 10:38:18;;;;;;;3.50;2.20;;;6.10;99.90;;;;;;5073788;28;20021;-36
2023/01/30 10:41:11;;;;;;;3.13;2.45;;;6.00;99.90;;;;;;5073963;28;20028;-43
2023/01/30 10:43:47;;;;;;;3.47;2.22;;;5.90;99.90;;;;;;5074581;28;20035;-42
2023/01/30 10:46:31;;;;;;;3.53;2.30;;;5.80;99.90;;;;;;5074098;28;20051;-41
2023/01/30 10:49:10;;;;;;;3.83;2.40;;;5.80;99.90;;;;;;5074755;28;20081;-43
2023/01/30 10:51:59;;;;;;;3.83;2.28;;;6.00;99.90;;;;;;5073612;28;20124;-43
2023/01/30 10:54:34;;;;;;;3.22;2.28;;;6.10;99.90;;;;;;5074731;28;20078;-43
2023/01/30 10:57:24;;;;;;;3.75;2.10;;;6.10;99.90;;;;;;5073060;28;20025;-35
2023/01/30 11:00:09;;;;;;;3.53;2.47;;;6.10;99.90;;;;;;5074823;28;20102;-43
2023/01/30 11:03:09;;;;;;;2.53;1.85;;;6.10;99.90;;;;;;5073659;28;20028;-34
2023/01/30 11:05:47;;;;;;;4.18;2.50;;;6.00;99.90;;;;;;5072037;28;20155;-41
2023/01/30 11:08:23;;;;;;;3.47;2.00;;;6.00;99.90;;;;;;5073290;28;20025;-40
2023/01/30 11:10:50;;;;;;;3.40;2.08;;;5.90;99.90;;;;;;5073335;28;20024;-35
2023/01/30 11:13:25;;;;;;;3.38;1.90;;;5.90;99.90;;;;;;5073357;28;20463;-38
2023/01/30 11:15:54;;;;;;;2.83;1.90;;;6.10;99.90;;;;;;5073085;28;20017;-32
2023/01/30 11:18:22;;;;;;;2.95;1.98;;;6.20;99.90;;;;;;5072756;28;20020;-33
2023/01/30 11:21:11;;;;;;;3.13;2.17;;;6.10;99.90;;;;;;5072837;28;20028;-39
2023/01/30 11:23:42;;;;;;;3.33;1.67;;;6.10;99.90;;;;;;5073433;28;20016;-36
2023/01/30 11:26:31;;;;;;;3.38;2.20;;;6.10;99.90;;;;;;5072893;28;20546;-36
2023/01/30 11:28:57;;;;;;;2.97;2.10;;;6.00;99.90;;;;;;5073484;28;20027;-33
2023/01/30 11:31:28;;;;;;;2.38;1.85;;;6.00;99.90;;;;;;5073319;28;20417;-35
2023/01/30 11:34:15;;;;;;;3.30;2.20;;;5.90;99.90;;;;;;5072716;28;20047;-39
2023/01/30 11:36:41;;;;;;;3.38;2.10;;;6.00;99.90;;;;;;5072519;28;20510;-36
2023/01/30 11:39:13;;;;;;;3.38;2.13;;;6.10;99.90;;;;;;5072760;28;20029;-38
2023/01/30 11:42:00;;;;;;;3.03;2.15;;;6.00;99.90;;;;;;5073188;28;20017;-41
2023/01/30 11:44:34;;;;;;;3.03;2.03;;;6.00;99.90;;;;;;5073184;28;20390;-41
2023/01/30 11:47:05;;;;;;;3.05;2.15;;;6.00;99.90;;;;;;5073008;28;20082;-43
2023/01/30 11:49:36;;;;;;;2.13;1.83;;;6.00;99.90;;;;;;5072500;28;20052;-39
2023/01/30 11:52:04;;;;;;;2.72;1.90;;;5.90;99.90;;;;;;5072833;28;20020;-42
2023/01/30 11:54:34;;;;;;;2.63;1.73;;;5.90;99.90;;;;;;5072461;28;20024;-35
2023/01/30 11:57:04;;;;;;;2.80;1.88;;;5.90;99.90;;;;;;5072290;28;20066;-43
2023/01/30 11:59:38;;;;;;;3.05;1.92;;;6.00;99.90;;;;;;5072299;28;20517;-36
2023/01/30 12:02:23;;;;;;;3.08;2.20;;;6.10;99.90;;;;;;5072551;28;20074;-35
2023/01/30 12:04:53;;;;;;;3.90;2.20;;;6.20;99.90;;;;;;5073126;28;20040;-43
2023/01/30 12:07:27;;;;;;;2.85;1.88;;;6.10;99.90;;;;;;5072414;28;20020;-34
2023/01/30 12:09:54;;;;;;;3.58;1.98;;;6.10;99.90;;;;;;5072198;28;20056;-37
2023/01/30 12:12:36;;;;;;;2.28;1.75;;;6.00;99.90;;;;;;5072081;28;20085;-40
2023/01/30 12:15:21;;;;;;;2.97;1.80;;;6.00;99.90;;;;;;5072350;28;20390;-42
2023/01/30 12:18:11;;;;;;;1.83;1.60;;;6.00;99.90;;;;;;5071890;28;20100;-32
2023/01/30 12:20:51;;;;;;;2.28;1.60;;;5.90;99.90;;;;;;5072462;28;20028;-43
2023/01/30 12:23:52;;;;;;;2.95;1.70;;;5.90;99.90;;;;;;5072091;28;20066;-36
2023/01/30 12:26:32;;;;;;;4.53;1.60;;;6.00;99.90;;;;;;5071806;28;20028;-40
2023/01/30 12:29:14;;;;;;;4.05;2.00;;;6.10;99.90;;;;;;5071792;28;20031;-42
2023/01/30 12:31:45;;;;;;;3.35;1.70;;;6.10;99.90;;;;;;5070932;28;20028;-37
2023/01/30 12:34:11;;;;;;;2.22;1.50;;;6.10;99.90;;;;;;5071504;28;20035;-41
2023/01/30 12:37:07;;;;;;;1.95;1.70;;;6.10;99.90;;;;;;5070536;28;20021;-36
2023/01/30 12:39:55;;;;;;;1.80;1.50;;;6.00;99.90;;;;;;5071723;28;20435;-37
2023/01/30 12:42:52;;;;;;;2.90;1.70;;;5.90;99.90;;;;;;5071727;28;20020;-43
2023/01/30 12:45:26;;;;;;;2.08;1.50;;;5.90;99.90;;;;;;5071306;28;20036;-43
2023/01/30 12:48:15;;;;;;;;;;;5.90;99.90;;;;;;5072028;28;20024;-32
2023/01/30 12:50:47;;;;;;;2.83;1.88;;;5.90;99.90;;;;;;5071550;28;20530;-43
2023/01/30 12:53:15;;;;;;;2.47;1.50;;;6.10;99.90;;;;;;5071698;28;20042;-34
2023/01/30 12:55:53;;;;;;;2.78;1.80;;;6.10;99.90;;;;;;5071805;28;20478;-43
2023/01/30 12:58:38;;;;;;;1.85;1.50;;;6.20;99.90;;;;;;5071310;28;20028;-37
2023/01/30 13:01:16;;;;;;;1.90;1.50;;;6.10;99.90;;;;;;5071515;28;20024;-41
2023/01/30 13:03:57;;;;;;;2.38;1.50;;;6.10;99.90;;;;;;5072536;28;20021;-36
2023/01/30 13:06:55;;;;;;;2.00;1.73;;;6.10;99.90;;;;;;5071082;28;20028;-43
2023/01/30 13:09:36;;;;;;;2.45;1.88;;;6.00;99.90;;;;;;5069828;28;20504;-41
2023/01/30 13:12:26;;;;;;;3.03;1.80;;;6.00;99.90;;;;;;5071715;28;20024;-42
2023/01/30 13:15:00;;;;;;;1.52;1.40;;;6.00;99.90;;;;;;5071271;28;20410;-43
2023/01/30 13:17:41;;;;;;;2.78;1.77;;;6.00;99.90;;;;;;5071132;28;20091;-39
2023/01/30 13:20:12;;;;;;;1.70;1.38;;;6.20;99.90;;;;;;5071275;28;20024;-37
2023/01/30 13:22:56;;;;;;;2.45;1.67;;;6.20;99.90;;;;;;5071497;28;20052;-44